sensor_id;sensor_type;location;lat;lon;timestamp;temperature;humidity
66035;HTU21D;52805;51.074;5.842;2022-08-03T00:01:55;23.89;62.07
66035;HTU21D;52805;51.074;5.842;2022-08-03T00:04:21;23.90;61.99
66035;HTU21D;52805;51.074;5.842;2022-08-03T00:06:47;23.90;61.99
66035;HTU21D;52805;51.074;5.842;2022-08-03T00:09:12;23.91;62.03
66035;HTU21D;52805;51.074;5.842;2022-08-03T00:11:38;23.86;62.28
66035;HTU21D;52805;51.074;5.842;2022-08-03T00:14:05;23.80;62.56
66035;HTU21D;52805;51.074;5.842;2022-08-03T00:16:31;23.76;62.70
66035;HTU21D;52805;51.074;5.842;2022-08-03T00:18:57;23.72;62.64
66035;HTU21D;52805;51.074;5.842;2022-08-03T00:21:23;23.70;62.74
66035;HTU21D;52805;51.074;5.842;2022-08-03T00:23:48;23.67;62.85
66035;HTU21D;52805;51.074;5.842;2022-08-03T00:26:14;23.66;62.92
66035;HTU21D;52805;51.074;5.842;2022-08-03T00:28:40;23.66;62.99
66035;HTU21D;52805;51.074;5.842;2022-08-03T00:31:06;23.64;63.14
66035;HTU21D;52805;51.074;5.842;2022-08-03T00:33:32;23.61;63.46
66035;HTU21D;52805;51.074;5.842;2022-08-03T00:35:57;23.60;63.68
66035;HTU21D;52805;51.074;5.842;2022-08-03T00:38:23;23.59;63.95
66035;HTU21D;52805;51.074;5.842;2022-08-03T00:40:49;23.53;64.19
66035;HTU21D;52805;51.074;5.842;2022-08-03T00:43:15;23.56;64.23
66035;HTU21D;52805;51.074;5.842;2022-08-03T00:45:42;23.55;64.19
66035;HTU21D;52805;51.074;5.842;2022-08-03T00:48:09;23.54;64.21
66035;HTU21D;52805;51.074;5.842;2022-08-03T00:50:39;23.53;64.25
66035;HTU21D;52805;51.074;5.842;2022-08-03T00:53:08;23.51;64.32
66035;HTU21D;52805;51.074;5.842;2022-08-03T00:55:37;23.50;64.30
66035;HTU21D;52805;51.074;5.842;2022-08-03T00:58:04;23.46;64.35
66035;HTU21D;52805;51.074;5.842;2022-08-03T01:00:33;23.45;64.43
66035;HTU21D;52805;51.074;5.842;2022-08-03T01:03:01;23.44;64.47
66035;HTU21D;52805;51.074;5.842;2022-08-03T01:05:28;23.39;64.55
66035;HTU21D;52805;51.074;5.842;2022-08-03T01:11:07;23.30;64.77
66035;HTU21D;52805;51.074;5.842;2022-08-03T01:13:43;23.29;64.83
66035;HTU21D;52805;51.074;5.842;2022-08-03T01:16:21;23.29;64.90
66035;HTU21D;52805;51.074;5.842;2022-08-03T01:18:59;23.24;65.08
66035;HTU21D;52805;51.074;5.842;2022-08-03T01:21:33;23.22;65.24
66035;HTU21D;52805;51.074;5.842;2022-08-03T01:27:11;23.18;65.40
66035;HTU21D;52805;51.074;5.842;2022-08-03T01:30:03;23.12;65.60
66035;HTU21D;52805;51.074;5.842;2022-08-03T01:33:25;23.08;65.72
66035;HTU21D;52805;51.074;5.842;2022-08-03T01:35:47;23.07;65.69
66035;HTU21D;52805;51.074;5.842;2022-08-03T01:38:23;23.05;65.69
66035;HTU21D;52805;51.074;5.842;2022-08-03T01:40:52;23.07;65.61
66035;HTU21D;52805;51.074;5.842;2022-08-03T01:43:24;23.05;65.56
66035;HTU21D;52805;51.074;5.842;2022-08-03T01:45:54;23.00;65.60
66035;HTU21D;52805;51.074;5.842;2022-08-03T01:48:20;22.98;65.62
66035;HTU21D;52805;51.074;5.842;2022-08-03T01:50:48;22.96;65.68
66035;HTU21D;52805;51.074;5.842;2022-08-03T01:53:16;22.94;65.67
66035;HTU21D;52805;51.074;5.842;2022-08-03T01:55:47;22.91;65.72
66035;HTU21D;52805;51.074;5.842;2022-08-03T01:58:16;22.88;65.73
66035;HTU21D;52805;51.074;5.842;2022-08-03T02:00:45;22.87;65.85
66035;HTU21D;52805;51.074;5.842;2022-08-03T02:03:14;22.86;65.85
66035;HTU21D;52805;51.074;5.842;2022-08-03T02:05:44;22.85;65.84
66035;HTU21D;52805;51.074;5.842;2022-08-03T02:08:12;22.84;65.82
66035;HTU21D;52805;51.074;5.842;2022-08-03T02:10:41;22.84;65.84
66035;HTU21D;52805;51.074;5.842;2022-08-03T02:13:08;22.82;65.79
66035;HTU21D;52805;51.074;5.842;2022-08-03T02:15:36;22.78;65.88
66035;HTU21D;52805;51.074;5.842;2022-08-03T02:18:05;22.76;66.01
66035;HTU21D;52805;51.074;5.842;2022-08-03T02:20:33;22.75;66.07
66035;HTU21D;52805;51.074;5.842;2022-08-03T02:23:01;22.71;66.14
66035;HTU21D;52805;51.074;5.842;2022-08-03T02:25:27;22.69;66.20
66035;HTU21D;52805;51.074;5.842;2022-08-03T02:27:58;22.65;66.33
66035;HTU21D;52805;51.074;5.842;2022-08-03T02:30:33;22.61;66.38
66035;HTU21D;52805;51.074;5.842;2022-08-03T02:33:09;22.55;66.54
66035;HTU21D;52805;51.074;5.842;2022-08-03T02:35:38;22.50;66.70
66035;HTU21D;52805;51.074;5.842;2022-08-03T02:38:08;22.46;66.78
66035;HTU21D;52805;51.074;5.842;2022-08-03T02:40:35;22.40;66.87
66035;HTU21D;52805;51.074;5.842;2022-08-03T02:43:11;22.40;66.91
66035;HTU21D;52805;51.074;5.842;2022-08-03T02:45:49;22.37;67.05
66035;HTU21D;52805;51.074;5.842;2022-08-03T02:48:37;22.35;67.16
66035;HTU21D;52805;51.074;5.842;2022-08-03T02:51:04;22.34;67.14
66035;HTU21D;52805;51.074;5.842;2022-08-03T02:53:33;22.32;67.13
66035;HTU21D;52805;51.074;5.842;2022-08-03T02:56:02;22.32;67.19
66035;HTU21D;52805;51.074;5.842;2022-08-03T02:58:30;22.28;67.30
66035;HTU21D;52805;51.074;5.842;2022-08-03T03:00:57;22.26;67.37
66035;HTU21D;52805;51.074;5.842;2022-08-03T03:03:24;22.25;67.48
66035;HTU21D;52805;51.074;5.842;2022-08-03T03:05:51;22.25;67.49
66035;HTU21D;52805;51.074;5.842;2022-08-03T03:08:20;22.24;67.42
66035;HTU21D;52805;51.074;5.842;2022-08-03T03:10:47;22.23;67.38
66035;HTU21D;52805;51.074;5.842;2022-08-03T03:13:15;22.22;67.43
66035;HTU21D;52805;51.074;5.842;2022-08-03T03:15:42;22.21;67.57
66035;HTU21D;52805;51.074;5.842;2022-08-03T03:18:09;22.19;67.60
66035;HTU21D;52805;51.074;5.842;2022-08-03T03:20:38;22.18;67.71
66035;HTU21D;52805;51.074;5.842;2022-08-03T03:23:07;22.17;67.73
66035;HTU21D;52805;51.074;5.842;2022-08-03T03:25:33;22.13;67.90
66035;HTU21D;52805;51.074;5.842;2022-08-03T03:28:00;22.10;67.97
66035;HTU21D;52805;51.074;5.842;2022-08-03T03:30:27;22.12;67.90
66035;HTU21D;52805;51.074;5.842;2022-08-03T03:32:56;22.12;67.93
66035;HTU21D;52805;51.074;5.842;2022-08-03T03:35:22;22.10;67.97
66035;HTU21D;52805;51.074;5.842;2022-08-03T03:37:47;22.09;67.97
66035;HTU21D;52805;51.074;5.842;2022-08-03T03:40:14;22.11;67.94
66035;HTU21D;52805;51.074;5.842;2022-08-03T03:42:40;22.07;68.04
66035;HTU21D;52805;51.074;5.842;2022-08-03T03:45:08;22.03;68.16
66035;HTU21D;52805;51.074;5.842;2022-08-03T03:47:34;22.02;68.27
66035;HTU21D;52805;51.074;5.842;2022-08-03T03:50:02;22.02;68.16
66035;HTU21D;52805;51.074;5.842;2022-08-03T03:52:28;22.01;68.17
66035;HTU21D;52805;51.074;5.842;2022-08-03T03:54:54;21.99;68.19
66035;HTU21D;52805;51.074;5.842;2022-08-03T03:57:19;21.98;68.24
66035;HTU21D;52805;51.074;5.842;2022-08-03T03:59:45;21.97;68.20
66035;HTU21D;52805;51.074;5.842;2022-08-03T04:02:11;21.95;68.26
66035;HTU21D;52805;51.074;5.842;2022-08-03T04:04:37;21.95;68.33
66035;HTU21D;52805;51.074;5.842;2022-08-03T04:07:26;21.90;68.45
66035;HTU21D;52805;51.074;5.842;2022-08-03T04:10:21;21.90;68.45
66035;HTU21D;52805;51.074;5.842;2022-08-03T04:13:08;21.87;68.52
66035;HTU21D;52805;51.074;5.842;2022-08-03T04:15:37;21.85;68.52
66035;HTU21D;52805;51.074;5.842;2022-08-03T04:18:10;21.83;68.64
66035;HTU21D;52805;51.074;5.842;2022-08-03T04:20:38;21.84;68.66
66035;HTU21D;52805;51.074;5.842;2022-08-03T04:23:06;21.84;68.65
66035;HTU21D;52805;51.074;5.842;2022-08-03T04:25:35;21.85;68.60
66035;HTU21D;52805;51.074;5.842;2022-08-03T04:28:03;21.88;68.46
66035;HTU21D;52805;51.074;5.842;2022-08-03T04:30:32;21.88;68.51
66035;HTU21D;52805;51.074;5.842;2022-08-03T04:33:01;21.88;68.47
66035;HTU21D;52805;51.074;5.842;2022-08-03T04:35:32;21.83;68.64
66035;HTU21D;52805;51.074;5.842;2022-08-03T04:38:02;21.82;68.65
66035;HTU21D;52805;51.074;5.842;2022-08-03T04:40:33;21.82;68.74
66035;HTU21D;52805;51.074;5.842;2022-08-03T04:43:00;21.80;68.79
66035;HTU21D;52805;51.074;5.842;2022-08-03T04:45:27;21.79;68.81
66035;HTU21D;52805;51.074;5.842;2022-08-03T04:47:55;21.79;68.81
66035;HTU21D;52805;51.074;5.842;2022-08-03T04:50:23;21.79;68.85
66035;HTU21D;52805;51.074;5.842;2022-08-03T04:53:05;21.82;68.78
66035;HTU21D;52805;51.074;5.842;2022-08-03T04:55:33;21.85;68.71
66035;HTU21D;52805;51.074;5.842;2022-08-03T04:58:00;21.88;68.68
66035;HTU21D;52805;51.074;5.842;2022-08-03T05:00:27;21.91;68.61
66035;HTU21D;52805;51.074;5.842;2022-08-03T05:02:53;21.95;68.52
66035;HTU21D;52805;51.074;5.842;2022-08-03T05:05:19;21.98;68.39
66035;HTU21D;52805;51.074;5.842;2022-08-03T05:07:45;22.03;68.26
66035;HTU21D;52805;51.074;5.842;2022-08-03T05:10:12;22.08;68.13
66035;HTU21D;52805;51.074;5.842;2022-08-03T05:12:38;22.10;68.10
66035;HTU21D;52805;51.074;5.842;2022-08-03T05:15:04;22.13;68.12
66035;HTU21D;52805;51.074;5.842;2022-08-03T05:17:30;22.14;68.12
66035;HTU21D;52805;51.074;5.842;2022-08-03T05:19:59;22.18;68.16
66035;HTU21D;52805;51.074;5.842;2022-08-03T05:22:25;22.21;68.15
66035;HTU21D;52805;51.074;5.842;2022-08-03T05:24:51;22.25;68.10
66035;HTU21D;52805;51.074;5.842;2022-08-03T05:27:17;22.24;68.17
66035;HTU21D;52805;51.074;5.842;2022-08-03T05:29:46;22.26;68.13
66035;HTU21D;52805;51.074;5.842;2022-08-03T05:32:13;22.25;68.20
66035;HTU21D;52805;51.074;5.842;2022-08-03T05:34:38;22.32;68.10
66035;HTU21D;52805;51.074;5.842;2022-08-03T05:37:04;22.36;68.01
66035;HTU21D;52805;51.074;5.842;2022-08-03T05:39:32;22.40;67.89
66035;HTU21D;52805;51.074;5.842;2022-08-03T05:41:58;22.42;67.82
66035;HTU21D;52805;51.074;5.842;2022-08-03T05:44:24;22.48;67.78
66035;HTU21D;52805;51.074;5.842;2022-08-03T05:46:50;22.53;67.75
66035;HTU21D;52805;51.074;5.842;2022-08-03T05:49:16;22.55;67.73
66035;HTU21D;52805;51.074;5.842;2022-08-03T05:51:42;22.60;67.68
66035;HTU21D;52805;51.074;5.842;2022-08-03T05:54:08;22.63;67.55
66035;HTU21D;52805;51.074;5.842;2022-08-03T05:56:33;22.65;67.35
66035;HTU21D;52805;51.074;5.842;2022-08-03T05:58:59;22.68;67.33
66035;HTU21D;52805;51.074;5.842;2022-08-03T06:01:25;22.71;67.20
66035;HTU21D;52805;51.074;5.842;2022-08-03T06:03:50;22.77;67.02
66035;HTU21D;52805;51.074;5.842;2022-08-03T06:06:16;22.77;66.91
66035;HTU21D;52805;51.074;5.842;2022-08-03T06:08:44;22.81;66.85
66035;HTU21D;52805;51.074;5.842;2022-08-03T06:11:10;22.87;66.77
66035;HTU21D;52805;51.074;5.842;2022-08-03T06:13:36;22.93;66.67
66035;HTU21D;52805;51.074;5.842;2022-08-03T06:16:02;22.96;66.60
66035;HTU21D;52805;51.074;5.842;2022-08-03T06:18:28;23.02;66.53
66035;HTU21D;52805;51.074;5.842;2022-08-03T06:20:53;23.08;66.46
66035;HTU21D;52805;51.074;5.842;2022-08-03T06:23:19;23.13;66.30
66035;HTU21D;52805;51.074;5.842;2022-08-03T06:25:45;23.20;66.17
66035;HTU21D;52805;51.074;5.842;2022-08-03T06:28:11;23.26;65.95
66035;HTU21D;52805;51.074;5.842;2022-08-03T06:30:39;23.30;65.92
66035;HTU21D;52805;51.074;5.842;2022-08-03T06:33:05;23.36;65.76
66035;HTU21D;52805;51.074;5.842;2022-08-03T06:35:30;23.42;65.50
66035;HTU21D;52805;51.074;5.842;2022-08-03T06:37:57;23.49;65.25
66035;HTU21D;52805;51.074;5.842;2022-08-03T06:40:23;23.55;64.88
66035;HTU21D;52805;51.074;5.842;2022-08-03T06:42:58;23.57;64.72
66035;HTU21D;52805;51.074;5.842;2022-08-03T06:45:25;23.62;64.55
66035;HTU21D;52805;51.074;5.842;2022-08-03T06:48:02;23.68;64.21
66035;HTU21D;52805;51.074;5.842;2022-08-03T06:50:29;23.76;63.77
66035;HTU21D;52805;51.074;5.842;2022-08-03T06:52:55;23.82;63.69
66035;HTU21D;52805;51.074;5.842;2022-08-03T06:55:21;23.88;63.37
66035;HTU21D;52805;51.074;5.842;2022-08-03T06:57:47;23.96;63.22
66035;HTU21D;52805;51.074;5.842;2022-08-03T07:00:13;24.02;63.07
66035;HTU21D;52805;51.074;5.842;2022-08-03T07:02:39;24.11;62.88
66035;HTU21D;52805;51.074;5.842;2022-08-03T07:05:06;24.17;62.69
66035;HTU21D;52805;51.074;5.842;2022-08-03T07:07:32;24.24;62.31
66035;HTU21D;52805;51.074;5.842;2022-08-03T07:09:58;24.28;62.24
66035;HTU21D;52805;51.074;5.842;2022-08-03T07:12:25;24.35;61.90
66035;HTU21D;52805;51.074;5.842;2022-08-03T07:14:51;24.45;61.72
66035;HTU21D;52805;51.074;5.842;2022-08-03T07:17:17;24.53;61.43
66035;HTU21D;52805;51.074;5.842;2022-08-03T07:19:42;24.58;61.31
66035;HTU21D;52805;51.074;5.842;2022-08-03T07:22:08;24.68;60.96
66035;HTU21D;52805;51.074;5.842;2022-08-03T07:24:34;24.75;60.53
66035;HTU21D;52805;51.074;5.842;2022-08-03T07:26:59;24.82;60.26
66035;HTU21D;52805;51.074;5.842;2022-08-03T07:29:25;24.87;60.18
66035;HTU21D;52805;51.074;5.842;2022-08-03T07:31:51;24.97;59.92
66035;HTU21D;52805;51.074;5.842;2022-08-03T07:34:16;25.06;59.62
66035;HTU21D;52805;51.074;5.842;2022-08-03T07:36:42;25.15;59.24
66035;HTU21D;52805;51.074;5.842;2022-08-03T07:39:08;25.21;59.03
66035;HTU21D;52805;51.074;5.842;2022-08-03T07:41:45;25.33;58.64
66035;HTU21D;52805;51.074;5.842;2022-08-03T07:44:12;25.43;58.32
66035;HTU21D;52805;51.074;5.842;2022-08-03T07:46:38;25.48;57.92
66035;HTU21D;52805;51.074;5.842;2022-08-03T07:49:04;25.53;57.90
66035;HTU21D;52805;51.074;5.842;2022-08-03T07:51:30;25.64;57.55
66035;HTU21D;52805;51.074;5.842;2022-08-03T07:53:55;25.75;56.95
66035;HTU21D;52805;51.074;5.842;2022-08-03T07:56:25;25.81;56.77
66035;HTU21D;52805;51.074;5.842;2022-08-03T07:58:52;25.83;56.92
66035;HTU21D;52805;51.074;5.842;2022-08-03T08:01:17;25.93;56.66
66035;HTU21D;52805;51.074;5.842;2022-08-03T08:03:45;26.01;56.47
66035;HTU21D;52805;51.074;5.842;2022-08-03T08:06:10;26.06;56.43
66035;HTU21D;52805;51.074;5.842;2022-08-03T08:08:37;26.16;56.34
66035;HTU21D;52805;51.074;5.842;2022-08-03T08:11:03;26.28;56.00
66035;HTU21D;52805;51.074;5.842;2022-08-03T08:13:29;26.36;55.71
66035;HTU21D;52805;51.074;5.842;2022-08-03T08:15:55;26.42;55.75
66035;HTU21D;52805;51.074;5.842;2022-08-03T08:18:20;26.51;55.55
66035;HTU21D;52805;51.074;5.842;2022-08-03T08:20:46;26.56;55.26
66035;HTU21D;52805;51.074;5.842;2022-08-03T08:23:12;26.63;55.06
66035;HTU21D;52805;51.074;5.842;2022-08-03T08:25:37;26.67;55.07
66035;HTU21D;52805;51.074;5.842;2022-08-03T08:28:03;26.76;54.76
66035;HTU21D;52805;51.074;5.842;2022-08-03T08:30:31;26.80;54.59
66035;HTU21D;52805;51.074;5.842;2022-08-03T08:32:58;26.87;54.39
66035;HTU21D;52805;51.074;5.842;2022-08-03T08:35:24;26.95;54.13
66035;HTU21D;52805;51.074;5.842;2022-08-03T08:37:49;27.05;53.62
66035;HTU21D;52805;51.074;5.842;2022-08-03T08:40:15;27.11;53.74
66035;HTU21D;52805;51.074;5.842;2022-08-03T08:42:42;27.17;53.56
66035;HTU21D;52805;51.074;5.842;2022-08-03T08:45:09;27.23;53.23
66035;HTU21D;52805;51.074;5.842;2022-08-03T08:47:38;27.25;53.15
66035;HTU21D;52805;51.074;5.842;2022-08-03T08:50:05;27.30;53.06
66035;HTU21D;52805;51.074;5.842;2022-08-03T08:52:33;27.40;52.92
66035;HTU21D;52805;51.074;5.842;2022-08-03T08:55:03;27.50;52.62
66035;HTU21D;52805;51.074;5.842;2022-08-03T08:57:33;27.64;51.91
66035;HTU21D;52805;51.074;5.842;2022-08-03T09:00:01;27.76;51.29
66035;HTU21D;52805;51.074;5.842;2022-08-03T09:02:29;27.87;50.79
66035;HTU21D;52805;51.074;5.842;2022-08-03T09:04:57;27.93;50.65
66035;HTU21D;52805;51.074;5.842;2022-08-03T09:07:23;27.97;50.65
66035;HTU21D;52805;51.074;5.842;2022-08-03T09:09:48;28.02;50.32
66035;HTU21D;52805;51.074;5.842;2022-08-03T09:12:14;28.06;50.24
66035;HTU21D;52805;51.074;5.842;2022-08-03T09:14:40;28.12;50.02
66035;HTU21D;52805;51.074;5.842;2022-08-03T09:17:05;28.16;50.05
66035;HTU21D;52805;51.074;5.842;2022-08-03T09:19:33;28.27;49.78
66035;HTU21D;52805;51.074;5.842;2022-08-03T09:22:11;28.35;49.73
66035;HTU21D;52805;51.074;5.842;2022-08-03T09:24:52;28.45;49.31
66035;HTU21D;52805;51.074;5.842;2022-08-03T09:27:19;28.50;49.08
66035;HTU21D;52805;51.074;5.842;2022-08-03T09:29:53;28.58;49.02
66035;HTU21D;52805;51.074;5.842;2022-08-03T09:32:23;28.67;48.70
66035;HTU21D;52805;51.074;5.842;2022-08-03T09:34:51;28.74;48.55
66035;HTU21D;52805;51.074;5.842;2022-08-03T09:37:19;28.87;48.18
66035;HTU21D;52805;51.074;5.842;2022-08-03T09:39:46;28.93;47.94
66035;HTU21D;52805;51.074;5.842;2022-08-03T09:42:15;29.01;47.70
66035;HTU21D;52805;51.074;5.842;2022-08-03T09:44:48;29.12;47.03
66035;HTU21D;52805;51.074;5.842;2022-08-03T09:47:36;29.14;47.30
66035;HTU21D;52805;51.074;5.842;2022-08-03T09:50:06;29.23;47.35
66035;HTU21D;52805;51.074;5.842;2022-08-03T09:52:35;29.29;47.22
66035;HTU21D;52805;51.074;5.842;2022-08-03T09:55:08;29.38;47.14
66035;HTU21D;52805;51.074;5.842;2022-08-03T09:57:34;29.49;46.73
66035;HTU21D;52805;51.074;5.842;2022-08-03T10:00:10;29.56;46.65
66035;HTU21D;52805;51.074;5.842;2022-08-03T10:02:42;29.61;46.26
66035;HTU21D;52805;51.074;5.842;2022-08-03T10:05:10;29.70;45.80
66035;HTU21D;52805;51.074;5.842;2022-08-03T10:07:49;29.76;45.54
66035;HTU21D;52805;51.074;5.842;2022-08-03T10:10:16;29.87;45.20
66035;HTU21D;52805;51.074;5.842;2022-08-03T10:12:43;29.94;45.01
66035;HTU21D;52805;51.074;5.842;2022-08-03T10:15:10;30.02;44.61
66035;HTU21D;52805;51.074;5.842;2022-08-03T10:17:36;30.04;44.45
66035;HTU21D;52805;51.074;5.842;2022-08-03T10:20:05;30.15;43.88
66035;HTU21D;52805;51.074;5.842;2022-08-03T10:22:35;30.16;44.21
66035;HTU21D;52805;51.074;5.842;2022-08-03T10:25:08;30.20;44.19
66035;HTU21D;52805;51.074;5.842;2022-08-03T10:27:38;30.30;43.93
66035;HTU21D;52805;51.074;5.842;2022-08-03T10:30:09;30.39;43.55
66035;HTU21D;52805;51.074;5.842;2022-08-03T10:33:07;30.51;42.53
66035;HTU21D;52805;51.074;5.842;2022-08-03T10:35:36;30.63;42.31
66035;HTU21D;52805;51.074;5.842;2022-08-03T10:38:18;30.65;42.10
66035;HTU21D;52805;51.074;5.842;2022-08-03T10:40:44;30.67;41.73
66035;HTU21D;52805;51.074;5.842;2022-08-03T10:43:19;30.78;40.90
66035;HTU21D;52805;51.074;5.842;2022-08-03T10:45:45;30.79;40.97
66035;HTU21D;52805;51.074;5.842;2022-08-03T10:48:12;30.92;40.17
66035;HTU21D;52805;51.074;5.842;2022-08-03T10:50:39;30.99;39.59
66035;HTU21D;52805;51.074;5.842;2022-08-03T10:53:07;31.01;39.30
66035;HTU21D;52805;51.074;5.842;2022-08-03T10:55:39;31.02;39.10
66035;HTU21D;52805;51.074;5.842;2022-08-03T11:01:12;31.13;38.20
66035;HTU21D;52805;51.074;5.842;2022-08-03T11:06:26;31.18;38.03
66035;HTU21D;52805;51.074;5.842;2022-08-03T11:11:41;31.33;38.15
66035;HTU21D;52805;51.074;5.842;2022-08-03T11:16:40;31.46;37.82
66035;HTU21D;52805;51.074;5.842;2022-08-03T11:19:09;31.45;37.69
66035;HTU21D;52805;51.074;5.842;2022-08-03T11:30:09;31.75;37.87
66035;HTU21D;52805;51.074;5.842;2022-08-03T11:35:12;31.89;37.88
66035;HTU21D;52805;51.074;5.842;2022-08-03T11:40:42;32.14;37.33
66035;HTU21D;52805;51.074;5.842;2022-08-03T11:46:02;32.31;37.24
66035;HTU21D;52805;51.074;5.842;2022-08-03T11:48:40;32.41;37.14
66035;HTU21D;52805;51.074;5.842;2022-08-03T11:51:26;32.49;36.85
66035;HTU21D;52805;51.074;5.842;2022-08-03T11:54:01;32.54;36.51
66035;HTU21D;52805;51.074;5.842;2022-08-03T11:56:28;32.55;36.76
66035;HTU21D;52805;51.074;5.842;2022-08-03T11:58:56;32.55;36.93
66035;HTU21D;52805;51.074;5.842;2022-08-03T12:01:24;32.62;37.02
66035;HTU21D;52805;51.074;5.842;2022-08-03T12:03:50;32.73;36.97
66035;HTU21D;52805;51.074;5.842;2022-08-03T12:06:18;32.78;36.48
66035;HTU21D;52805;51.074;5.842;2022-08-03T12:08:45;32.89;36.75
66035;HTU21D;52805;51.074;5.842;2022-08-03T12:11:13;33.00;36.27
66035;HTU21D;52805;51.074;5.842;2022-08-03T12:13:47;32.97;36.50
66035;HTU21D;52805;51.074;5.842;2022-08-03T12:16:22;33.05;36.46
66035;HTU21D;52805;51.074;5.842;2022-08-03T12:19:03;33.11;36.33
66035;HTU21D;52805;51.074;5.842;2022-08-03T12:21:30;33.16;35.49
66035;HTU21D;52805;51.074;5.842;2022-08-03T12:24:03;33.23;36.11
66035;HTU21D;52805;51.074;5.842;2022-08-03T12:26:48;33.31;35.74
66035;HTU21D;52805;51.074;5.842;2022-08-03T12:29:17;33.42;35.85
66035;HTU21D;52805;51.074;5.842;2022-08-03T12:31:43;33.47;35.49
66035;HTU21D;52805;51.074;5.842;2022-08-03T12:34:09;33.52;35.47
66035;HTU21D;52805;51.074;5.842;2022-08-03T12:36:36;33.53;35.15
66035;HTU21D;52805;51.074;5.842;2022-08-03T12:39:05;33.58;35.46
66035;HTU21D;52805;51.074;5.842;2022-08-03T12:41:36;33.68;35.28
66035;HTU21D;52805;51.074;5.842;2022-08-03T12:44:04;33.76;35.10
66035;HTU21D;52805;51.074;5.842;2022-08-03T12:46:33;33.88;35.07
66035;HTU21D;52805;51.074;5.842;2022-08-03T12:54:24;34.15;34.63
66035;HTU21D;52805;51.074;5.842;2022-08-03T12:57:09;34.32;34.41
66035;HTU21D;52805;51.074;5.842;2022-08-03T12:59:36;34.42;32.44
66035;HTU21D;52805;51.074;5.842;2022-08-03T13:02:03;34.49;33.79
66035;HTU21D;52805;51.074;5.842;2022-08-03T13:09:27;34.60;32.86
66035;HTU21D;52805;51.074;5.842;2022-08-03T13:12:07;34.55;32.86
66035;HTU21D;52805;51.074;5.842;2022-08-03T13:14:33;34.54;33.04
66035;HTU21D;52805;51.074;5.842;2022-08-03T13:16:59;34.57;33.06
66035;HTU21D;52805;51.074;5.842;2022-08-03T13:19:25;34.59;33.27
66035;HTU21D;52805;51.074;5.842;2022-08-03T13:21:50;34.70;33.32
66035;HTU21D;52805;51.074;5.842;2022-08-03T13:24:16;34.81;33.18
66035;HTU21D;52805;51.074;5.842;2022-08-03T13:26:42;34.86;31.09
66035;HTU21D;52805;51.074;5.842;2022-08-03T13:29:08;34.84;33.02
66035;HTU21D;52805;51.074;5.842;2022-08-03T13:31:34;34.95;32.51
66035;HTU21D;52805;51.074;5.842;2022-08-03T13:34:00;34.92;32.43
66035;HTU21D;52805;51.074;5.842;2022-08-03T13:36:26;34.96;31.98
66035;HTU21D;52805;51.074;5.842;2022-08-03T13:38:52;34.95;32.35
66035;HTU21D;52805;51.074;5.842;2022-08-03T13:41:17;35.03;32.40
66035;HTU21D;52805;51.074;5.842;2022-08-03T13:43:43;35.09;32.45
66035;HTU21D;52805;51.074;5.842;2022-08-03T13:46:09;35.23;32.06
66035;HTU21D;52805;51.074;5.842;2022-08-03T13:48:34;35.26;31.90
66035;HTU21D;52805;51.074;5.842;2022-08-03T13:51:00;35.33;31.72
66035;HTU21D;52805;51.074;5.842;2022-08-03T13:53:25;35.43;31.30
66035;HTU21D;52805;51.074;5.842;2022-08-03T13:55:51;35.44;31.50
66035;HTU21D;52805;51.074;5.842;2022-08-03T13:58:17;35.54;31.32
66035;HTU21D;52805;51.074;5.842;2022-08-03T14:00:42;35.56;31.01
66035;HTU21D;52805;51.074;5.842;2022-08-03T14:03:08;35.58;31.22
66035;HTU21D;52805;51.074;5.842;2022-08-03T14:05:34;35.67;31.06
66035;HTU21D;52805;51.074;5.842;2022-08-03T14:08:01;35.72;30.09
66035;HTU21D;52805;51.074;5.842;2022-08-03T14:10:27;35.68;30.93
66035;HTU21D;52805;51.074;5.842;2022-08-03T14:12:52;35.64;30.91
66035;HTU21D;52805;51.074;5.842;2022-08-03T14:15:20;35.55;31.22
66035;HTU21D;52805;51.074;5.842;2022-08-03T14:17:45;35.58;31.06
66035;HTU21D;52805;51.074;5.842;2022-08-03T14:20:11;35.65;30.96
66035;HTU21D;52805;51.074;5.842;2022-08-03T14:22:37;35.75;30.74
66035;HTU21D;52805;51.074;5.842;2022-08-03T14:25:03;35.79;30.61
66035;HTU21D;52805;51.074;5.842;2022-08-03T14:27:29;35.90;30.64
66035;HTU21D;52805;51.074;5.842;2022-08-03T14:29:54;36.06;30.49
66035;HTU21D;52805;51.074;5.842;2022-08-03T14:32:25;36.22;29.93
66035;HTU21D;52805;51.074;5.842;2022-08-03T14:34:51;36.24;29.51
66035;HTU21D;52805;51.074;5.842;2022-08-03T14:37:17;36.24;28.77
66035;HTU21D;52805;51.074;5.842;2022-08-03T14:39:43;36.28;29.47
66035;HTU21D;52805;51.074;5.842;2022-08-03T14:42:11;36.38;29.19
66035;HTU21D;52805;51.074;5.842;2022-08-03T14:44:36;36.48;28.88
66035;HTU21D;52805;51.074;5.842;2022-08-03T14:47:02;36.55;28.53
66035;HTU21D;52805;51.074;5.842;2022-08-03T14:49:28;36.48;28.69
66035;HTU21D;52805;51.074;5.842;2022-08-03T14:51:53;36.46;28.55
66035;HTU21D;52805;51.074;5.842;2022-08-03T14:54:20;36.54;28.31
66035;HTU21D;52805;51.074;5.842;2022-08-03T14:56:46;36.59;28.13
66035;HTU21D;52805;51.074;5.842;2022-08-03T14:59:11;36.59;28.24
66035;HTU21D;52805;51.074;5.842;2022-08-03T15:01:37;36.67;28.31
66035;HTU21D;52805;51.074;5.842;2022-08-03T15:04:02;36.78;28.16
66035;HTU21D;52805;51.074;5.842;2022-08-03T15:06:28;36.76;28.28
66035;HTU21D;52805;51.074;5.842;2022-08-03T15:08:54;36.74;28.29
66035;HTU21D;52805;51.074;5.842;2022-08-03T15:11:19;36.67;28.51
66035;HTU21D;52805;51.074;5.842;2022-08-03T15:13:45;36.60;28.56
66035;HTU21D;52805;51.074;5.842;2022-08-03T15:16:10;36.49;28.42
66035;HTU21D;52805;51.074;5.842;2022-08-03T15:18:36;36.40;28.76
66035;HTU21D;52805;51.074;5.842;2022-08-03T15:21:02;36.33;28.95
66035;HTU21D;52805;51.074;5.842;2022-08-03T15:23:27;36.34;29.05
66035;HTU21D;52805;51.074;5.842;2022-08-03T15:25:53;36.36;28.94
66035;HTU21D;52805;51.074;5.842;2022-08-03T15:28:19;36.40;29.16
66035;HTU21D;52805;51.074;5.842;2022-08-03T15:30:44;36.48;29.16
66035;HTU21D;52805;51.074;5.842;2022-08-03T15:33:10;36.55;28.84
66035;HTU21D;52805;51.074;5.842;2022-08-03T15:35:36;36.52;28.75
66035;HTU21D;52805;51.074;5.842;2022-08-03T15:38:02;36.54;28.59
66035;HTU21D;52805;51.074;5.842;2022-08-03T15:40:28;36.55;28.65
66035;HTU21D;52805;51.074;5.842;2022-08-03T15:42:53;36.52;28.45
66035;HTU21D;52805;51.074;5.842;2022-08-03T15:45:19;36.23;28.71
66035;HTU21D;52805;51.074;5.842;2022-08-03T15:47:45;35.96;29.17
66035;HTU21D;52805;51.074;5.842;2022-08-03T15:50:10;35.90;29.51
66035;HTU21D;52805;51.074;5.842;2022-08-03T15:52:37;36.00;29.39
66035;HTU21D;52805;51.074;5.842;2022-08-03T15:55:03;36.10;29.31
66035;HTU21D;52805;51.074;5.842;2022-08-03T15:57:29;36.21;28.87
66035;HTU21D;52805;51.074;5.842;2022-08-03T15:59:54;36.26;28.97
66035;HTU21D;52805;51.074;5.842;2022-08-03T16:02:20;36.30;29.00
66035;HTU21D;52805;51.074;5.842;2022-08-03T16:04:46;36.38;28.83
66035;HTU21D;52805;51.074;5.842;2022-08-03T16:07:11;36.44;28.71